createdAt,value
2023-10-14T00:02:10.132Z,19.90
2023-10-14T00:04:37.430Z,19.80
2023-10-14T00:07:09.926Z,19.80
2023-10-14T00:09:50.781Z,19.80
2023-10-14T00:12:18.591Z,19.80
2023-10-14T00:14:49.723Z,19.80
2023-10-14T00:17:20.030Z,19.70
2023-10-14T00:19:50.928Z,19.70
2023-10-14T00:22:21.824Z,19.60
2023-10-14T00:24:53.784Z,19.60
2023-10-14T00:27:22.932Z,19.60
2023-10-14T00:29:51.944Z,19.60
2023-10-14T00:32:19.162Z,19.60
2023-10-14T00:34:46.406Z,19.60
2023-10-14T00:37:13.521Z,19.50
2023-10-14T00:39:40.756Z,19.50
2023-10-14T00:42:10.429Z,19.50
2023-10-14T00:44:39.620Z,19.50
2023-10-14T00:47:09.230Z,19.40
2023-10-14T00:49:37.182Z,19.40
2023-10-14T00:52:08.651Z,19.40
2023-10-14T00:54:46.221Z,19.40
2023-10-14T00:57:19.722Z,19.30
2023-10-14T00:59:51.032Z,19.30
2023-10-14T01:02:31.031Z,19.30
2023-10-14T01:05:07.377Z,19.30
2023-10-14T01:07:39.440Z,19.30
2023-10-14T01:10:07.378Z,19.20
2023-10-14T01:12:40.755Z,19.20
2023-10-14T01:15:34.531Z,19.10
2023-10-14T01:18:04.236Z,19.10
2023-10-14T01:20:39.181Z,19.10
2023-10-14T01:23:13.688Z,19.00
2023-10-14T01:26:04.442Z,19.00
2023-10-14T01:28:32.077Z,19.00
2023-10-14T01:31:12.894Z,19.00
2023-10-14T01:33:40.240Z,19.00
2023-10-14T01:36:09.942Z,18.90
2023-10-14T01:38:38.208Z,18.90
2023-10-14T01:41:06.116Z,18.90
2023-10-14T01:43:33.382Z,18.90
2023-10-14T01:46:02.299Z,18.90
2023-10-14T01:48:32.562Z,18.80
2023-10-14T01:51:05.138Z,18.80
2023-10-14T01:53:43.823Z,18.80
2023-10-14T01:56:10.949Z,18.80
2023-10-14T01:58:38.377Z,18.80
2023-10-14T02:01:16.596Z,18.80
2023-10-14T02:03:50.692Z,18.70
2023-10-14T02:06:19.375Z,18.70
2023-10-14T02:08:52.263Z,18.70
2023-10-14T02:11:22.067Z,18.70
2023-10-14T02:13:51.546Z,18.60
2023-10-14T02:16:19.817Z,18.60
2023-10-14T02:18:46.930Z,18.60
2023-10-14T02:21:17.960Z,18.50
2023-10-14T02:23:45.490Z,18.50
2023-10-14T02:26:12.549Z,18.50
2023-10-14T02:28:42.589Z,18.40
2023-10-14T02:31:19.314Z,18.40
2023-10-14T02:33:48.740Z,18.40
2023-10-14T02:36:17.119Z,18.30
2023-10-14T02:38:45.848Z,18.30
2023-10-14T02:41:17.870Z,18.30
2023-10-14T02:43:45.552Z,18.30
2023-10-14T02:46:12.663Z,18.20
2023-10-14T02:48:54.981Z,18.20
2023-10-14T02:51:32.740Z,18.10
2023-10-14T02:54:05.017Z,18.10
2023-10-14T02:56:55.287Z,18.10
2023-10-14T02:59:25.033Z,18.10
2023-10-14T03:02:12.255Z,18.00
2023-10-14T03:04:49.596Z,18.00
2023-10-14T03:07:28.399Z,18.00
2023-10-14T03:10:00.054Z,17.90
2023-10-14T03:12:29.888Z,17.90
2023-10-14T03:14:57.112Z,17.90
2023-10-14T03:17:40.040Z,17.80
2023-10-14T03:20:28.430Z,17.80
2023-10-14T03:23:02.812Z,17.80
2023-10-14T03:25:30.316Z,17.80
2023-10-14T03:28:06.838Z,17.70
2023-10-14T03:30:38.330Z,17.70
2023-10-14T03:33:11.744Z,17.60
2023-10-14T03:35:39.138Z,17.60
2023-10-14T03:38:15.990Z,17.60
2023-10-14T03:40:48.574Z,17.60
2023-10-14T03:43:16.664Z,17.60
2023-10-14T03:46:05.012Z,17.50
2023-10-14T03:48:47.278Z,17.50
2023-10-14T03:51:25.702Z,17.40
2023-10-14T03:53:53.476Z,17.40
2023-10-14T03:56:23.090Z,17.40
2023-10-14T03:58:50.512Z,17.40
2023-10-14T04:01:24.353Z,17.40
2023-10-14T04:03:54.013Z,17.30
2023-10-14T04:06:24.449Z,17.30
2023-10-14T04:08:51.623Z,17.30
2023-10-14T04:11:26.751Z,17.30
2023-10-14T04:14:03.413Z,17.30
2023-10-14T04:16:46.246Z,17.30
2023-10-14T04:19:29.251Z,17.30
2023-10-14T04:22:08.711Z,17.30
2023-10-14T04:24:38.518Z,17.20
2023-10-14T04:27:24.186Z,17.20
2023-10-14T04:29:58.594Z,17.20
2023-10-14T04:32:43.189Z,17.20
2023-10-14T04:35:11.304Z,17.20
2023-10-14T04:37:54.463Z,17.20
2023-10-14T04:40:34.366Z,17.20
2023-10-14T04:43:19.930Z,17.10
2023-10-14T04:45:52.503Z,17.10
2023-10-14T04:48:28.329Z,17.10
2023-10-14T04:51:01.462Z,17.10
2023-10-14T04:53:28.560Z,17.10
2023-10-14T04:55:56.050Z,17.10
2023-10-14T04:58:27.243Z,17.10
2023-10-14T05:01:02.193Z,17.10
2023-10-14T05:03:32.597Z,17.00
2023-10-14T05:06:16.188Z,17.00
2023-10-14T05:08:46.782Z,17.00
2023-10-14T05:11:14.725Z,17.00
2023-10-14T05:13:44.061Z,17.00
2023-10-14T05:16:22.288Z,17.00
2023-10-14T05:19:08.328Z,16.90
2023-10-14T05:21:44.024Z,17.00
2023-10-14T05:24:12.258Z,16.90
2023-10-14T05:26:49.233Z,16.90
2023-10-14T05:29:20.011Z,16.90
2023-10-14T05:31:48.040Z,16.90
2023-10-14T05:34:15.559Z,16.90
2023-10-14T05:36:42.764Z,16.90
2023-10-14T05:39:11.432Z,16.90
2023-10-14T05:41:39.365Z,16.90
2023-10-14T05:44:09.738Z,16.90
2023-10-14T05:46:39.966Z,16.90
2023-10-14T05:49:09.426Z,16.90
2023-10-14T05:51:36.733Z,16.90
2023-10-14T05:54:06.554Z,16.90
2023-10-14T05:56:33.700Z,16.90
2023-10-14T05:59:01.909Z,16.90
2023-10-14T06:01:29.318Z,16.90
2023-10-14T06:04:01.204Z,16.90
2023-10-14T06:06:28.352Z,16.90
2023-10-14T06:08:56.026Z,17.00
2023-10-14T06:11:26.582Z,17.00
2023-10-14T06:13:53.724Z,17.00
2023-10-14T06:16:20.820Z,17.00
2023-10-14T06:18:50.745Z,17.00
2023-10-14T06:21:20.583Z,17.00
2023-10-14T06:23:50.619Z,17.00
2023-10-14T06:26:18.442Z,17.00
2023-10-14T06:28:50.955Z,17.00
2023-10-14T06:31:23.760Z,17.10
2023-10-14T06:33:51.065Z,17.10
2023-10-14T06:36:18.928Z,17.10
2023-10-14T06:38:46.057Z,17.10
2023-10-14T06:41:14.928Z,17.20
2023-10-14T06:43:44.689Z,17.20
2023-10-14T06:46:13.349Z,17.20
2023-10-14T06:48:40.621Z,17.20
2023-10-14T06:51:10.297Z,17.20
2023-10-14T06:53:37.499Z,17.30
2023-10-14T06:56:06.048Z,17.30
2023-10-14T06:58:34.660Z,17.30
2023-10-14T07:01:02.166Z,17.40
2023-10-14T07:03:32.096Z,17.40
2023-10-14T07:06:00.074Z,17.40
2023-10-14T07:08:30.698Z,17.50
2023-10-14T07:10:58.097Z,17.60
2023-10-14T07:13:28.622Z,17.60
2023-10-14T07:15:56.135Z,17.70
2023-10-14T07:18:26.243Z,17.70
2023-10-14T07:21:01.635Z,17.80
2023-10-14T07:23:35.952Z,17.80
2023-10-14T07:26:11.241Z,17.90
2023-10-14T07:28:43.820Z,17.90
2023-10-14T07:31:11.659Z,18.00
2023-10-14T07:33:42.253Z,18.00
2023-10-14T07:36:12.737Z,18.00
2023-10-14T07:38:39.938Z,18.00
2023-10-14T07:41:07.035Z,18.10
2023-10-14T07:43:35.326Z,18.10
2023-10-14T07:46:04.352Z,18.10
2023-10-14T07:48:31.689Z,18.10
2023-10-14T07:51:11.157Z,18.10
2023-10-14T07:53:45.451Z,18.10
2023-10-14T07:56:12.566Z,18.10
2023-10-14T07:58:40.083Z,18.20
2023-10-14T08:01:11.070Z,18.20
2023-10-14T08:03:39.208Z,18.30
2023-10-14T08:06:09.360Z,18.30
2023-10-14T08:08:48.810Z,18.40
2023-10-14T08:11:15.989Z,18.40
2023-10-14T08:13:45.421Z,18.50
2023-10-14T08:16:16.620Z,18.50
2023-10-14T08:18:46.077Z,18.60
2023-10-14T08:21:13.383Z,18.60
2023-10-14T08:23:40.579Z,18.60
2023-10-14T08:26:14.692Z,18.70
2023-10-14T08:28:43.385Z,18.70
2023-10-14T08:31:13.563Z,18.80
2023-10-14T08:33:47.360Z,18.80
2023-10-14T08:36:14.867Z,18.80
2023-10-14T08:38:43.425Z,18.80
2023-10-14T08:41:15.189Z,18.90
2023-10-14T08:43:51.235Z,18.90
2023-10-14T08:46:19.234Z,18.90
2023-10-14T08:48:47.650Z,19.00
2023-10-14T08:51:16.036Z,19.00
2023-10-14T08:53:43.202Z,19.10
2023-10-14T08:56:10.411Z,19.10
2023-10-14T08:58:41.079Z,19.20
2023-10-14T09:01:12.731Z,19.20
2023-10-14T09:03:40.023Z,19.30
2023-10-14T09:06:08.103Z,19.30
2023-10-14T09:08:37.671Z,19.30
2023-10-14T09:11:04.775Z,19.40
2023-10-14T09:13:34.884Z,19.40
2023-10-14T09:16:03.451Z,19.50
2023-10-14T09:18:31.691Z,19.60
2023-10-14T09:21:05.241Z,19.70
2023-10-14T09:23:34.232Z,19.80
2023-10-14T09:26:02.414Z,19.90
2023-10-14T09:28:29.625Z,20.00
2023-10-14T09:30:59.567Z,20.10
2023-10-14T09:33:29.788Z,20.20
2023-10-14T09:36:00.067Z,20.40
2023-10-14T09:38:28.617Z,20.60
2023-10-14T09:40:57.943Z,20.70
2023-10-14T09:43:28.434Z,20.90
2023-10-14T09:45:56.741Z,21.00
2023-10-14T09:48:35.962Z,21.20
2023-10-14T09:51:04.696Z,21.30
2023-10-14T09:53:35.219Z,21.40
2023-10-14T09:56:08.731Z,21.60
2023-10-14T09:58:36.607Z,21.70
2023-10-14T10:01:07.074Z,21.80
2023-10-14T10:03:54.709Z,21.90
2023-10-14T10:06:28.054Z,21.90
2023-10-14T10:08:57.299Z,22.00
2023-10-14T10:11:24.901Z,22.00
2023-10-14T10:13:55.619Z,22.00
2023-10-14T10:16:23.259Z,22.10
2023-10-14T10:18:59.067Z,22.10
2023-10-14T10:21:31.072Z,22.10
2023-10-14T10:24:19.588Z,22.10
2023-10-14T10:27:04.740Z,22.10
2023-10-14T10:29:34.246Z,22.20
2023-10-14T10:32:10.606Z,22.20
2023-10-14T10:34:56.428Z,22.20
2023-10-14T10:37:29.113Z,22.30
2023-10-14T10:39:56.704Z,22.30
2023-10-14T10:42:24.762Z,22.40
2023-10-14T10:44:51.944Z,22.40
2023-10-14T10:47:21.197Z,22.50
2023-10-14T10:50:00.680Z,22.50
2023-10-14T10:52:31.399Z,22.60
2023-10-14T10:54:59.556Z,22.70
2023-10-14T10:57:29.242Z,22.70
2023-10-14T10:59:56.381Z,22.80
2023-10-14T11:02:23.532Z,22.90
2023-10-14T11:04:50.842Z,22.90
2023-10-14T11:07:19.290Z,22.90
2023-10-14T11:09:50.376Z,22.90
2023-10-14T11:12:19.705Z,22.90
2023-10-14T11:14:50.104Z,23.00
2023-10-14T11:17:17.614Z,22.90
2023-10-14T11:19:45.293Z,22.90
2023-10-14T11:22:13.154Z,22.90
2023-10-14T11:24:43.417Z,22.90
2023-10-14T11:27:11.384Z,22.90
2023-10-14T11:29:41.181Z,22.90
2023-10-14T11:32:09.951Z,22.90
2023-10-14T11:34:43.194Z,23.00
2023-10-14T11:37:12.338Z,22.90
2023-10-14T11:39:39.588Z,22.90
2023-10-14T11:42:06.712Z,23.00
2023-10-14T11:44:37.260Z,23.00
2023-10-14T11:47:08.704Z,23.00
2023-10-14T11:49:39.516Z,23.00
2023-10-14T11:52:07.397Z,23.00
2023-10-14T11:54:34.559Z,23.00
2023-10-14T11:57:01.747Z,23.00
2023-10-14T11:59:28.871Z,23.10
2023-10-14T12:02:00.286Z,23.10
2023-10-14T12:04:29.619Z,23.10
2023-10-14T12:06:57.097Z,23.20
2023-10-14T12:09:24.426Z,23.20
2023-10-14T12:11:51.966Z,23.20
2023-10-14T12:14:21.369Z,23.30
2023-10-14T12:16:51.863Z,23.30
2023-10-14T12:19:21.610Z,23.40
2023-10-14T12:21:49.430Z,23.40
2023-10-14T12:24:16.585Z,23.40
2023-10-14T12:26:46.964Z,23.40
2023-10-14T12:29:14.248Z,23.50
2023-10-14T12:31:48.697Z,23.50
2023-10-14T12:34:17.118Z,23.50
2023-10-14T12:36:46.378Z,23.50
2023-10-14T12:39:28.012Z,23.50
2023-10-14T12:42:03.653Z,23.50
2023-10-14T12:44:31.117Z,23.60
2023-10-14T12:46:58.761Z,23.60
2023-10-14T12:49:26.208Z,23.60
2023-10-14T12:51:59.837Z,23.70
2023-10-14T12:54:30.973Z,23.70
2023-10-14T12:57:00.706Z,23.60
2023-10-14T12:59:27.775Z,23.70
2023-10-14T13:02:00.542Z,23.70
2023-10-14T13:04:31.184Z,23.70
2023-10-14T13:06:59.343Z,23.70
2023-10-14T13:09:30.867Z,23.70
2023-10-14T13:11:58.586Z,23.70
2023-10-14T13:14:29.186Z,23.70
2023-10-14T13:17:01.279Z,23.70
2023-10-14T13:19:35.539Z,23.70
2023-10-14T13:22:04.120Z,23.70
2023-10-14T13:24:32.784Z,23.70
2023-10-14T13:27:02.322Z,23.80
2023-10-14T13:29:29.601Z,23.80
2023-10-14T13:31:56.871Z,23.80
2023-10-14T13:34:24.010Z,23.80
2023-10-14T13:36:57.886Z,23.90
2023-10-14T13:39:26.446Z,23.90
2023-10-14T13:41:55.400Z,23.90
2023-10-14T13:44:22.824Z,23.90
2023-10-14T13:46:50.094Z,23.90
2023-10-14T13:49:25.624Z,23.90
2023-10-14T13:51:55.735Z,23.90
2023-10-14T13:54:25.617Z,23.90
2023-10-14T13:56:57.064Z,23.90
2023-10-14T13:59:24.448Z,23.90
2023-10-14T14:01:53.393Z,23.90
2023-10-14T14:04:22.029Z,23.90
2023-10-14T14:06:53.911Z,23.90
2023-10-14T14:09:24.848Z,23.90
2023-10-14T14:11:57.244Z,23.90
2023-10-14T14:14:25.458Z,23.90
2023-10-14T14:16:55.733Z,23.90
2023-10-14T14:19:23.438Z,23.90
2023-10-14T14:21:53.677Z,23.90
2023-10-14T14:24:24.107Z,23.90
2023-10-14T14:26:51.560Z,23.90
2023-10-14T14:29:20.795Z,23.90
2023-10-14T14:31:48.487Z,23.90
2023-10-14T14:34:15.857Z,23.90
2023-10-14T14:36:46.162Z,23.90
2023-10-14T14:39:16.652Z,23.90
2023-10-14T14:41:47.277Z,23.90
2023-10-14T14:44:15.238Z,23.90
2023-10-14T14:46:42.737Z,23.90
2023-10-14T14:49:13.424Z,23.80
2023-10-14T14:51:43.428Z,23.80
2023-10-14T14:54:10.988Z,23.80
2023-10-14T14:56:38.670Z,23.80
2023-10-14T14:59:05.739Z,23.80
2023-10-14T15:01:34.519Z,23.80
2023-10-14T15:04:01.882Z,23.80
2023-10-14T15:06:29.477Z,23.80
2023-10-14T15:08:56.629Z,23.80
2023-10-14T15:11:26.512Z,23.80
2023-10-14T15:13:58.351Z,23.80
2023-10-14T15:16:40.735Z,23.70
2023-10-14T15:19:09.328Z,23.80
2023-10-14T15:21:36.762Z,23.70
2023-10-14T15:24:06.889Z,23.70
2023-10-14T15:26:34.090Z,23.70
2023-10-14T15:29:05.099Z,23.70
2023-10-14T15:31:33.052Z,23.70
2023-10-14T15:34:01.069Z,23.70
2023-10-14T15:36:28.376Z,23.70
2023-10-14T15:38:56.282Z,23.70
2023-10-14T15:41:26.489Z,23.70
2023-10-14T15:43:54.085Z,23.60
2023-10-14T15:46:27.084Z,23.60
2023-10-14T15:48:54.404Z,23.60
2023-10-14T15:51:21.643Z,23.60
2023-10-14T15:53:54.009Z,23.60
2023-10-14T15:56:23.530Z,23.60
2023-10-14T15:58:53.613Z,23.60
2023-10-14T16:01:21.513Z,23.60
2023-10-14T16:03:49.673Z,23.60
2023-10-14T16:06:17.031Z,23.50
2023-10-14T16:08:44.179Z,23.50
2023-10-14T16:11:16.050Z,23.50
2023-10-14T16:13:43.500Z,23.50
2023-10-14T16:16:13.253Z,23.50
2023-10-14T16:18:40.447Z,23.50
2023-10-14T16:21:13.926Z,23.50
2023-10-14T16:23:43.478Z,23.50
2023-10-14T16:26:12.934Z,23.50
2023-10-14T16:28:40.119Z,23.40
2023-10-14T16:31:13.074Z,23.40
2023-10-14T16:33:41.160Z,23.40
2023-10-14T16:36:11.731Z,23.30
2023-10-14T16:38:44.477Z,23.30
2023-10-14T16:41:11.706Z,23.30
2023-10-14T16:43:41.349Z,23.30
2023-10-14T16:46:15.488Z,23.20
2023-10-14T16:48:44.962Z,23.20
2023-10-14T16:51:12.480Z,23.20
2023-10-14T16:53:39.714Z,23.20
2023-10-14T16:56:13.662Z,23.10
2023-10-14T16:58:46.137Z,23.10
2023-10-14T17:01:14.014Z,23.10
2023-10-14T17:03:41.226Z,23.10
2023-10-14T17:06:08.347Z,23.00
2023-10-14T17:08:38.079Z,23.00
2023-10-14T17:11:07.933Z,23.00
2023-10-14T17:13:37.633Z,23.00
2023-10-14T17:16:04.994Z,22.90
2023-10-14T17:18:32.201Z,22.90
2023-10-14T17:20:59.297Z,22.90
2023-10-14T17:23:26.445Z,22.80
2023-10-14T17:25:55.561Z,22.80
2023-10-14T17:28:23.334Z,22.80
2023-10-14T17:30:52.617Z,22.70
2023-10-14T17:33:20.096Z,22.70
2023-10-14T17:35:48.748Z,22.70
2023-10-14T17:38:17.766Z,22.70
2023-10-14T17:40:45.125Z,22.60
2023-10-14T17:43:12.524Z,22.60
2023-10-14T17:45:44.669Z,22.60
2023-10-14T17:48:12.634Z,22.50
2023-10-14T17:50:40.212Z,22.50
2023-10-14T17:53:18.289Z,22.40
2023-10-14T17:55:48.590Z,22.40
2023-10-14T17:58:16.155Z,22.30
2023-10-14T18:00:46.772Z,22.30
2023-10-14T18:03:14.119Z,22.30
2023-10-14T18:05:42.643Z,22.30
2023-10-14T18:08:13.197Z,22.20
2023-10-14T18:10:40.845Z,22.20
2023-10-14T18:13:11.296Z,22.10
2023-10-14T18:15:41.634Z,22.10
2023-10-14T18:18:12.680Z,22.10
2023-10-14T18:20:40.044Z,22.10
2023-10-14T18:23:07.484Z,22.00
2023-10-14T18:25:39.609Z,21.90
2023-10-14T18:28:07.589Z,22.00
2023-10-14T18:30:41.937Z,21.90
2023-10-14T18:33:12.040Z,21.90
2023-10-14T18:35:40.460Z,21.80
2023-10-14T18:38:12.507Z,21.80
2023-10-14T18:40:41.996Z,21.80
2023-10-14T18:43:10.198Z,21.80
2023-10-14T18:45:37.767Z,21.80
2023-10-14T18:48:13.588Z,21.70
2023-10-14T18:50:44.636Z,21.70
2023-10-14T18:53:12.951Z,21.70
2023-10-14T18:55:41.577Z,21.70
2023-10-14T18:58:10.833Z,21.60
2023-10-14T19:00:41.857Z,21.60
2023-10-14T19:03:11.810Z,21.60
2023-10-14T19:05:42.271Z,21.50
2023-10-14T19:08:13.832Z,21.50
2023-10-14T19:10:42.530Z,21.40
2023-10-14T19:13:10.193Z,21.40
2023-10-14T19:15:40.274Z,21.40
2023-10-14T19:18:09.812Z,21.30
2023-10-14T19:20:40.936Z,21.30
2023-10-14T19:23:08.698Z,21.20
2023-10-14T19:25:37.364Z,21.20
2023-10-14T19:28:05.204Z,21.20
2023-10-14T19:30:33.627Z,21.10
2023-10-14T19:33:01.762Z,21.10
2023-10-14T19:35:34.369Z,21.10
2023-10-14T19:38:03.497Z,21.10
2023-10-14T19:40:31.096Z,21.00
2023-10-14T19:43:00.636Z,20.90
2023-10-14T19:45:28.304Z,20.90
2023-10-14T19:47:55.665Z,20.90
2023-10-14T19:50:22.872Z,20.80
2023-10-14T19:52:53.076Z,20.80
2023-10-14T19:55:22.943Z,20.80
2023-10-14T19:57:52.831Z,20.70
2023-10-14T20:00:23.261Z,20.70
2023-10-14T20:02:50.738Z,20.70
2023-10-14T20:05:20.282Z,20.60
2023-10-14T20:07:51.634Z,20.60
2023-10-14T20:10:19.975Z,20.60
2023-10-14T20:12:50.913Z,20.60
2023-10-14T20:15:21.773Z,20.50
2023-10-14T20:17:49.204Z,20.50
2023-10-14T20:20:19.370Z,20.40
2023-10-14T20:22:50.411Z,20.30
2023-10-14T20:25:21.367Z,20.30
2023-10-14T20:27:49.924Z,20.30
2023-10-14T20:30:20.244Z,20.20
2023-10-14T20:32:52.721Z,20.20
2023-10-14T20:35:25.222Z,20.10
2023-10-14T20:37:52.997Z,20.10
2023-10-14T20:40:22.531Z,20.00
2023-10-14T20:42:53.420Z,20.00
2023-10-14T20:45:23.482Z,19.90
2023-10-14T20:47:54.524Z,19.90
2023-10-14T20:50:22.247Z,19.90
2023-10-14T20:52:49.977Z,19.80
2023-10-14T20:55:24.093Z,19.80
2023-10-14T20:57:54.358Z,19.70
2023-10-14T21:00:27.500Z,19.70
2023-10-14T21:02:55.491Z,19.70
2023-10-14T21:05:27.222Z,19.60
2023-10-14T21:07:54.321Z,19.60
2023-10-14T21:10:24.904Z,19.60
2023-10-14T21:12:52.394Z,19.50
2023-10-14T21:15:19.530Z,19.60
2023-10-14T21:17:52.037Z,19.50
2023-10-14T21:20:20.996Z,19.50
2023-10-14T21:22:48.124Z,19.40
2023-10-14T21:25:22.272Z,19.40
2023-10-14T21:27:49.409Z,19.40
2023-10-14T21:30:18.806Z,19.30
2023-10-14T21:32:50.503Z,19.30
2023-10-14T21:35:17.718Z,19.30
2023-10-14T21:37:44.883Z,19.30
2023-10-14T21:40:19.174Z,19.30
2023-10-14T21:42:51.276Z,19.20
2023-10-14T21:45:19.614Z,19.20
2023-10-14T21:47:50.414Z,19.20
2023-10-14T21:50:18.444Z,19.20
2023-10-14T21:52:50.487Z,19.20
2023-10-14T21:55:21.559Z,19.20
2023-10-14T21:57:52.663Z,19.10
2023-10-14T22:00:22.110Z,19.10
2023-10-14T22:02:50.070Z,19.10
2023-10-14T22:05:22.322Z,19.10
2023-10-14T22:07:50.140Z,19.00
2023-10-14T22:10:20.484Z,19.00
2023-10-14T22:12:48.555Z,19.00
2023-10-14T22:15:20.366Z,18.90
2023-10-14T22:17:47.839Z,18.90
2023-10-14T22:20:18.043Z,18.90
2023-10-14T22:22:52.404Z,18.90
2023-10-14T22:25:23.325Z,18.90
2023-10-14T22:27:50.405Z,18.90
2023-10-14T22:30:18.302Z,18.90
2023-10-14T22:32:48.266Z,18.80
2023-10-14T22:35:16.119Z,18.80
2023-10-14T22:37:43.670Z,18.80
2023-10-14T22:40:17.303Z,18.70
2023-10-14T22:42:48.229Z,18.80
2023-10-14T22:45:17.790Z,18.70
2023-10-14T22:47:45.358Z,18.70
2023-10-14T22:50:13.216Z,18.70
2023-10-14T22:52:41.061Z,18.70
2023-10-14T22:55:11.361Z,18.70
2023-10-14T22:57:41.866Z,18.60
2023-10-14T23:00:14.605Z,18.70
2023-10-14T23:02:41.802Z,18.60
2023-10-14T23:05:09.161Z,18.60
2023-10-14T23:07:36.359Z,18.60
2023-10-14T23:10:09.088Z,18.60
2023-10-14T23:12:36.880Z,18.60
2023-10-14T23:15:06.941Z,18.50
2023-10-14T23:17:39.485Z,18.60
2023-10-14T23:20:07.454Z,18.60
2023-10-14T23:22:35.112Z,18.50
2023-10-14T23:25:02.255Z,18.50
2023-10-14T23:27:29.349Z,18.50
2023-10-14T23:29:58.934Z,18.50
2023-10-14T23:32:26.270Z,18.50
2023-10-14T23:34:53.522Z,18.50
2023-10-14T23:37:23.144Z,18.40
2023-10-14T23:39:50.310Z,18.40
2023-10-14T23:42:17.470Z,18.40
2023-10-14T23:44:49.300Z,18.40
2023-10-14T23:47:20.074Z,18.40
2023-10-14T23:49:49.251Z,18.40
2023-10-14T23:52:16.394Z,18.40
2023-10-14T23:54:44.498Z,18.40
2023-10-14T23:57:14.219Z,18.40
2023-10-14T23:59:41.322Z,18.30
